sensor_id;sensor_type;location;lat;lon;timestamp;temperature;humidity
54178;DHT22;40085;53.004;6.770;2023-11-21T07:09:10;9.20;99.90
54178;DHT22;40085;53.004;6.770;2023-11-21T07:11:37;9.20;99.90
54178;DHT22;40085;53.004;6.770;2023-11-21T07:14:03;9.20;99.90
54178;DHT22;40085;53.004;6.770;2023-11-21T07:16:35;9.20;99.90
54178;DHT22;40085;53.004;6.770;2023-11-21T07:19:05;9.10;99.90
54178;DHT22;40085;53.004;6.770;2023-11-21T07:21:35;9.20;99.90
54178;DHT22;40085;53.004;6.770;2023-11-21T07:24:05;9.20;99.90
54178;DHT22;40085;53.004;6.770;2023-11-21T07:26:31;9.20;99.90
54178;DHT22;40085;53.004;6.770;2023-11-21T07:28:57;9.10;99.90
54178;DHT22;40085;53.004;6.770;2023-11-21T07:31:23;9.10;99.90
54178;DHT22;40085;53.004;6.770;2023-11-21T07:33:50;9.30;99.90
54178;DHT22;40085;53.004;6.770;2023-11-21T07:36:16;9.10;99.90
54178;DHT22;40085;53.004;6.770;2023-11-21T07:38:44;9.10;99.90
54178;DHT22;40085;53.004;6.770;2023-11-21T07:41:10;9.10;99.90
54178;DHT22;40085;53.004;6.770;2023-11-21T07:43:36;9.10;99.90
54178;DHT22;40085;53.004;6.770;2023-11-21T07:46:03;9.00;99.90
54178;DHT22;40085;53.004;6.770;2023-11-21T07:48:32;9.00;99.90
54178;DHT22;40085;53.004;6.770;2023-11-21T07:50:58;9.40;99.90
54178;DHT22;40085;53.004;6.770;2023-11-21T07:53:25;9.00;99.90
54178;DHT22;40085;53.004;6.770;2023-11-21T07:55:55;9.00;99.90
54178;DHT22;40085;53.004;6.770;2023-11-21T07:58:21;9.00;99.90
54178;DHT22;40085;53.004;6.770;2023-11-21T08:00:47;9.00;99.90
54178;DHT22;40085;53.004;6.770;2023-11-21T08:03:13;9.00;99.90
54178;DHT22;40085;53.004;6.770;2023-11-21T08:05:39;8.90;99.90
54178;DHT22;40085;53.004;6.770;2023-11-21T08:08:05;8.90;99.90
54178;DHT22;40085;53.004;6.770;2023-11-21T08:10:31;8.90;99.90
54178;DHT22;40085;53.004;6.770;2023-11-21T08:12:57;8.90;99.90
54178;DHT22;40085;53.004;6.770;2023-11-21T08:15:22;8.90;99.90
54178;DHT22;40085;53.004;6.770;2023-11-21T08:17:48;8.90;99.90
54178;DHT22;40085;53.004;6.770;2023-11-21T08:20:14;8.90;99.90
54178;DHT22;40085;53.004;6.770;2023-11-21T08:22:43;8.90;99.90
54178;DHT22;40085;53.004;6.770;2023-11-21T08:25:09;8.90;99.90
54178;DHT22;40085;53.004;6.770;2023-11-21T08:27:35;8.90;99.90
54178;DHT22;40085;53.004;6.770;2023-11-21T08:30:03;8.90;99.90
54178;DHT22;40085;53.004;6.770;2023-11-21T08:32:29;8.90;99.90
54178;DHT22;40085;53.004;6.770;2023-11-21T08:34:59;8.90;99.90
54178;DHT22;40085;53.004;6.770;2023-11-21T08:37:25;8.80;99.90
54178;DHT22;40085;53.004;6.770;2023-11-21T08:39:52;8.90;99.90
54178;DHT22;40085;53.004;6.770;2023-11-21T08:42:19;8.80;99.90
54178;DHT22;40085;53.004;6.770;2023-11-21T08:44:44;8.90;99.90
54178;DHT22;40085;53.004;6.770;2023-11-21T08:47:10;8.80;99.90
54178;DHT22;40085;53.004;6.770;2023-11-21T08:49:36;8.80;99.90
54178;DHT22;40085;53.004;6.770;2023-11-21T08:52:01;8.80;99.90
54178;DHT22;40085;53.004;6.770;2023-11-21T08:54:27;8.80;99.90
54178;DHT22;40085;53.004;6.770;2023-11-21T08:56:54;8.80;99.90
54178;DHT22;40085;53.004;6.770;2023-11-21T08:59:20;8.80;99.90
54178;DHT22;40085;53.004;6.770;2023-11-21T09:01:46;8.70;99.90
54178;DHT22;40085;53.004;6.770;2023-11-21T09:04:12;8.70;99.90
54178;DHT22;40085;53.004;6.770;2023-11-21T09:06:41;8.70;99.90
54178;DHT22;40085;53.004;6.770;2023-11-21T09:09:07;8.70;99.90
54178;DHT22;40085;53.004;6.770;2023-11-21T09:11:33;8.70;99.90
54178;DHT22;40085;53.004;6.770;2023-11-21T09:14:00;8.70;99.90
54178;DHT22;40085;53.004;6.770;2023-11-21T09:16:26;8.60;99.90
54178;DHT22;40085;53.004;6.770;2023-11-21T09:18:51;8.60;99.90
54178;DHT22;40085;53.004;6.770;2023-11-21T09:21:17;8.60;99.90
54178;DHT22;40085;53.004;6.770;2023-11-21T09:23:44;8.60;99.90
54178;DHT22;40085;53.004;6.770;2023-11-21T09:26:10;8.60;99.90
54178;DHT22;40085;53.004;6.770;2023-11-21T09:28:35;8.60;99.90
54178;DHT22;40085;53.004;6.770;2023-11-21T09:31:06;8.60;99.90
54178;DHT22;40085;53.004;6.770;2023-11-21T09:33:34;8.60;99.90
54178;DHT22;40085;53.004;6.770;2023-11-21T09:36:00;8.60;99.90
54178;DHT22;40085;53.004;6.770;2023-11-21T09:38:26;8.60;99.90
54178;DHT22;40085;53.004;6.770;2023-11-21T09:40:54;8.60;99.90
54178;DHT22;40085;53.004;6.770;2023-11-21T09:43:21;8.70;99.90
54178;DHT22;40085;53.004;6.770;2023-11-21T09:45:56;8.70;99.90
54178;DHT22;40085;53.004;6.770;2023-11-21T09:48:26;8.60;99.90
54178;DHT22;40085;53.004;6.770;2023-11-21T09:50:53;8.60;99.90
54178;DHT22;40085;53.004;6.770;2023-11-21T09:53:22;8.60;99.90
54178;DHT22;40085;53.004;6.770;2023-11-21T09:55:53;8.50;99.90
54178;DHT22;40085;53.004;6.770;2023-11-21T09:58:20;8.60;99.90
54178;DHT22;40085;53.004;6.770;2023-11-21T10:00:48;8.60;99.90
54178;DHT22;40085;53.004;6.770;2023-11-21T10:03:15;8.60;99.90
54178;DHT22;40085;53.004;6.770;2023-11-21T10:05:43;8.60;99.90
54178;DHT22;40085;53.004;6.770;2023-11-21T10:08:10;8.50;99.90
54178;DHT22;40085;53.004;6.770;2023-11-21T10:10:46;8.40;99.90
54178;DHT22;40085;53.004;6.770;2023-11-21T10:13:14;8.40;99.90
54178;DHT22;40085;53.004;6.770;2023-11-21T10:15:43;8.40;99.90
54178;DHT22;40085;53.004;6.770;2023-11-21T10:18:14;8.40;99.90
54178;DHT22;40085;53.004;6.770;2023-11-21T10:20:41;8.40;99.90
54178;DHT22;40085;53.004;6.770;2023-11-21T10:23:07;8.50;99.90
54178;DHT22;40085;53.004;6.770;2023-11-21T10:25:36;8.50;99.90
54178;DHT22;40085;53.004;6.770;2023-11-21T10:28:03;8.70;99.90
54178;DHT22;40085;53.004;6.770;2023-11-21T10:30:33;8.80;99.90
54178;DHT22;40085;53.004;6.770;2023-11-21T10:33:03;8.90;99.90
54178;DHT22;40085;53.004;6.770;2023-11-21T10:35:48;9.00;99.90
54178;DHT22;40085;53.004;6.770;2023-11-21T10:38:20;9.00;99.90
54178;DHT22;40085;53.004;6.770;2023-11-21T10:40:51;9.10;99.90
54178;DHT22;40085;53.004;6.770;2023-11-21T10:43:17;9.10;99.90
54178;DHT22;40085;53.004;6.770;2023-11-21T10:45:44;9.10;99.90
54178;DHT22;40085;53.004;6.770;2023-11-21T10:48:14;9.10;99.90
54178;DHT22;40085;53.004;6.770;2023-11-21T10:50:45;9.10;99.90
54178;DHT22;40085;53.004;6.770;2023-11-21T10:53:11;9.00;99.90
54178;DHT22;40085;53.004;6.770;2023-11-21T10:55:39;9.00;99.90
54178;DHT22;40085;53.004;6.770;2023-11-21T10:58:05;9.00;99.90
54178;DHT22;40085;53.004;6.770;2023-11-21T11:00:33;9.00;99.90
54178;DHT22;40085;53.004;6.770;2023-11-21T11:02:59;8.90;99.90
54178;DHT22;40085;53.004;6.770;2023-11-21T11:05:27;8.90;99.90
54178;DHT22;40085;53.004;6.770;2023-11-21T11:08:08;8.90;99.90
54178;DHT22;40085;53.004;6.770;2023-11-21T11:10:34;8.90;99.90
54178;DHT22;40085;53.004;6.770;2023-11-21T11:13:00;8.80;99.90
54178;DHT22;40085;53.004;6.770;2023-11-21T11:15:27;8.90;99.90
54178;DHT22;40085;53.004;6.770;2023-11-21T11:17:54;9.00;99.90
54178;DHT22;40085;53.004;6.770;2023-11-21T11:20:25;9.00;99.90
54178;DHT22;40085;53.004;6.770;2023-11-21T11:33:55;9.40;99.90
54178;DHT22;40085;53.004;6.770;2023-11-21T11:36:43;9.40;99.90
54178;DHT22;40085;53.004;6.770;2023-11-21T11:39:37;9.50;99.90
54178;DHT22;40085;53.004;6.770;2023-11-21T11:42:07;9.50;99.90
54178;DHT22;40085;53.004;6.770;2023-11-21T11:47:20;9.30;99.90
54178;DHT22;40085;53.004;6.770;2023-11-21T11:50:11;9.40;99.90
54178;DHT22;40085;53.004;6.770;2023-11-21T11:52:49;9.30;99.90
54178;DHT22;40085;53.004;6.770;2023-11-21T11:55:20;9.20;99.90
54178;DHT22;40085;53.004;6.770;2023-11-21T11:57:52;9.20;99.90
54178;DHT22;40085;53.004;6.770;2023-11-21T12:00:22;9.10;99.90
54178;DHT22;40085;53.004;6.770;2023-11-21T12:02:55;9.10;99.90
54178;DHT22;40085;53.004;6.770;2023-11-21T12:05:22;9.10;99.90
54178;DHT22;40085;53.004;6.770;2023-11-21T12:10:18;9.00;99.90
54178;DHT22;40085;53.004;6.770;2023-11-21T12:12:48;9.00;99.90
54178;DHT22;40085;53.004;6.770;2023-11-21T12:15:15;9.00;99.90
54178;DHT22;40085;53.004;6.770;2023-11-21T12:17:42;8.90;99.90
54178;DHT22;40085;53.004;6.770;2023-11-21T12:20:09;9.00;99.90
54178;DHT22;40085;53.004;6.770;2023-11-21T12:25:16;8.90;99.90
54178;DHT22;40085;53.004;6.770;2023-11-21T12:27:44;8.90;99.90
54178;DHT22;40085;53.004;6.770;2023-11-21T12:30:12;8.80;99.90
54178;DHT22;40085;53.004;6.770;2023-11-21T12:32:42;8.80;99.90
54178;DHT22;40085;53.004;6.770;2023-11-21T12:35:11;8.80;99.90
54178;DHT22;40085;53.004;6.770;2023-11-21T12:37:38;8.90;99.90
54178;DHT22;40085;53.004;6.770;2023-11-21T12:40:08;9.00;99.90
54178;DHT22;40085;53.004;6.770;2023-11-21T12:42:37;9.00;99.90
54178;DHT22;40085;53.004;6.770;2023-11-21T12:45:19;9.00;99.90
54178;DHT22;40085;53.004;6.770;2023-11-21T12:47:49;9.00;99.90
54178;DHT22;40085;53.004;6.770;2023-11-21T12:50:25;9.10;99.90
54178;DHT22;40085;53.004;6.770;2023-11-21T12:52:59;9.10;99.90
54178;DHT22;40085;53.004;6.770;2023-11-21T12:55:25;9.20;99.90
54178;DHT22;40085;53.004;6.770;2023-11-21T12:57:55;9.20;99.90
54178;DHT22;40085;53.004;6.770;2023-11-21T13:00:29;9.10;99.90
54178;DHT22;40085;53.004;6.770;2023-11-21T13:02:58;9.00;99.90
54178;DHT22;40085;53.004;6.770;2023-11-21T13:05:25;8.90;99.90
54178;DHT22;40085;53.004;6.770;2023-11-21T13:07:52;8.70;99.90
54178;DHT22;40085;53.004;6.770;2023-11-21T13:10:22;8.70;99.90
54178;DHT22;40085;53.004;6.770;2023-11-21T13:12:51;8.70;99.90
54178;DHT22;40085;53.004;6.770;2023-11-21T13:15:17;8.80;99.90
54178;DHT22;40085;53.004;6.770;2023-11-21T13:17:43;9.00;99.90
54178;DHT22;40085;53.004;6.770;2023-11-21T13:20:13;9.00;99.90
54178;DHT22;40085;53.004;6.770;2023-11-21T13:22:48;9.10;99.90
54178;DHT22;40085;53.004;6.770;2023-11-21T13:25:15;9.10;99.90
54178;DHT22;40085;53.004;6.770;2023-11-21T13:27:43;9.10;99.90
54178;DHT22;40085;53.004;6.770;2023-11-21T13:30:14;9.10;99.90
54178;DHT22;40085;53.004;6.770;2023-11-21T13:32:46;9.10;99.90
54178;DHT22;40085;53.004;6.770;2023-11-21T13:35:12;9.20;99.90
54178;DHT22;40085;53.004;6.770;2023-11-21T13:37:52;9.20;99.90
54178;DHT22;40085;53.004;6.770;2023-11-21T13:40:22;9.20;99.90
54178;DHT22;40085;53.004;6.770;2023-11-21T13:42:52;9.60;99.90
54178;DHT22;40085;53.004;6.770;2023-11-21T13:45:20;9.00;99.90
54178;DHT22;40085;53.004;6.770;2023-11-21T13:47:47;9.00;99.90
54178;DHT22;40085;53.004;6.770;2023-11-21T13:50:13;8.90;99.90
54178;DHT22;40085;53.004;6.770;2023-11-21T13:52:44;8.80;99.90
54178;DHT22;40085;53.004;6.770;2023-11-21T13:55:13;8.80;99.90
54178;DHT22;40085;53.004;6.770;2023-11-21T13:57:44;8.70;99.90
54178;DHT22;40085;53.004;6.770;2023-11-21T14:00:15;8.70;99.90
54178;DHT22;40085;53.004;6.770;2023-11-21T14:03:01;8.70;99.90
54178;DHT22;40085;53.004;6.770;2023-11-21T14:05:31;8.60;99.90
54178;DHT22;40085;53.004;6.770;2023-11-21T14:07:59;8.60;99.90
54178;DHT22;40085;53.004;6.770;2023-11-21T14:10:30;8.60;99.90
54178;DHT22;40085;53.004;6.770;2023-11-21T14:13:12;8.50;99.90
54178;DHT22;40085;53.004;6.770;2023-11-21T14:15:40;8.50;99.90
54178;DHT22;40085;53.004;6.770;2023-11-21T14:18:11;8.50;99.90
54178;DHT22;40085;53.004;6.770;2023-11-21T14:20:40;8.50;99.90
54178;DHT22;40085;53.004;6.770;2023-11-21T14:23:06;8.50;99.90
54178;DHT22;40085;53.004;6.770;2023-11-21T14:25:33;8.50;99.90
54178;DHT22;40085;53.004;6.770;2023-11-21T14:27:59;8.50;99.90
54178;DHT22;40085;53.004;6.770;2023-11-21T14:30:25;8.50;99.90
54178;DHT22;40085;53.004;6.770;2023-11-21T14:32:51;8.50;99.90
54178;DHT22;40085;53.004;6.770;2023-11-21T14:35:17;8.50;99.90
54178;DHT22;40085;53.004;6.770;2023-11-21T14:37:43;8.40;99.90
54178;DHT22;40085;53.004;6.770;2023-11-21T14:40:09;8.40;99.90
54178;DHT22;40085;53.004;6.770;2023-11-21T14:42:35;8.40;99.90
54178;DHT22;40085;53.004;6.770;2023-11-21T14:45:04;8.40;99.90
54178;DHT22;40085;53.004;6.770;2023-11-21T14:47:32;8.30;99.90
54178;DHT22;40085;53.004;6.770;2023-11-21T14:50:02;8.30;99.90
54178;DHT22;40085;53.004;6.770;2023-11-21T14:52:48;8.30;99.90
54178;DHT22;40085;53.004;6.770;2023-11-21T14:55:21;8.30;99.90
54178;DHT22;40085;53.004;6.770;2023-11-21T14:57:57;8.20;99.90
54178;DHT22;40085;53.004;6.770;2023-11-21T15:00:27;8.20;99.90
54178;DHT22;40085;53.004;6.770;2023-11-21T15:02:59;8.20;99.90
54178;DHT22;40085;53.004;6.770;2023-11-21T15:05:25;8.20;99.90
54178;DHT22;40085;53.004;6.770;2023-11-21T15:07:53;8.20;99.90
54178;DHT22;40085;53.004;6.770;2023-11-21T15:10:22;8.20;99.90
54178;DHT22;40085;53.004;6.770;2023-11-21T15:12:56;8.10;99.90
54178;DHT22;40085;53.004;6.770;2023-11-21T15:15:23;8.10;99.90
54178;DHT22;40085;53.004;6.770;2023-11-21T15:17:48;8.10;99.90
54178;DHT22;40085;53.004;6.770;2023-11-21T15:20:14;8.10;99.90
54178;DHT22;40085;53.004;6.770;2023-11-21T15:25:13;8.00;99.90
54178;DHT22;40085;53.004;6.770;2023-11-21T15:27:39;8.00;99.90
54178;DHT22;40085;53.004;6.770;2023-11-21T15:30:07;8.00;99.90
54178;DHT22;40085;53.004;6.770;2023-11-21T15:32:32;8.00;99.90
54178;DHT22;40085;53.004;6.770;2023-11-21T15:34:58;7.90;99.90
54178;DHT22;40085;53.004;6.770;2023-11-21T15:37:24;7.90;99.90
54178;DHT22;40085;53.004;6.770;2023-11-21T15:39:51;7.90;99.90
54178;DHT22;40085;53.004;6.770;2023-11-21T15:42:17;7.80;99.90
54178;DHT22;40085;53.004;6.770;2023-11-21T15:44:43;7.80;99.90
54178;DHT22;40085;53.004;6.770;2023-11-21T15:47:08;7.70;99.90
54178;DHT22;40085;53.004;6.770;2023-11-21T15:49:34;7.70;99.90
54178;DHT22;40085;53.004;6.770;2023-11-21T15:52:02;7.70;99.90
54178;DHT22;40085;53.004;6.770;2023-11-21T15:54:29;7.60;99.90
54178;DHT22;40085;53.004;6.770;2023-11-21T15:56:56;7.60;99.90
54178;DHT22;40085;53.004;6.770;2023-11-21T15:59:23;7.70;99.90
54178;DHT22;40085;53.004;6.770;2023-11-21T16:01:52;7.50;99.90
